Time;durP1;ratioP1;P1;durP2;ratioP2;P2;SDS_P1;SDS_P2;PMS_P1;PMS_P2;Temp;Humidity;BMP_temperature;BMP_pressure;BME280_temperature;BME280_humidity;BME280_pressure;Samples;Min_cycle;Max_cycle;Signal;HPM_P1;HPM_P2
2022/03/09 00:02:20;;;;;;;;;;;;;;;-10.01;54.16;99590.03;4898383;29;20009;-68
2022/03/09 00:04:46;;;;;;;;;;;;;;;-10.09;53.76;99595.66;4896896;29;19932;-67
2022/03/09 00:07:12;;;;;;;;;;;;;;;-10.12;54.02;99590.75;4909928;29;19938;-67
2022/03/09 00:09:37;;;;;;;;;;;;;;;-10.16;54.05;99597.00;4916826;29;19927;-67
2022/03/09 00:12:03;;;;;;;;;;;;;;;-10.21;53.79;99592.16;4898932;29;20030;-67
2022/03/09 00:14:29;;;;;;;;;;;;;;;-10.19;53.93;99597.22;4898650;29;19927;-68
2022/03/09 00:16:54;;;;;;;;;;;;;;;-10.26;53.60;99601.91;4916487;29;20377;-67
2022/03/09 00:19:20;;;;;;;;;;;;;;;-10.26;54.17;99606.22;4900303;29;19934;-69
2022/03/09 00:21:47;;;;;;;;;;;;;;;-10.25;54.61;99613.81;4901242;29;19931;-69
2022/03/09 00:24:14;;;;;;;;;;;;;;;-10.33;54.17;99610.94;4898733;29;20325;-68
2022/03/09 00:26:40;;;;;;;;;;;;;;;-10.47;54.55;99611.84;4901902;29;20486;-69
2022/03/09 00:29:09;;;;;;;;;;;;;;;-10.54;54.68;99616.53;4898171;29;19927;-69
2022/03/09 00:31:34;;;;;;;;;;;;;;;-10.49;54.58;99621.38;4897746;29;20416;-69
2022/03/09 00:34:00;;;;;;;;;;;;;;;-10.49;54.65;99615.44;4898019;29;19984;-69
2022/03/09 00:36:25;;;;;;;;;;;;;;;-10.65;54.80;99613.81;4889589;29;19931;-69
2022/03/09 00:38:51;;;;;;;;;;;;;;;-10.63;54.99;99616.28;4915414;29;19926;-71
2022/03/09 00:41:17;;;;;;;;;;;;;;;-10.66;55.43;99614.75;4904519;29;19987;-68
2022/03/09 00:43:43;;;;;;;;;;;;;;;-10.58;54.88;99619.38;4897608;29;20351;-69
2022/03/09 00:46:08;;;;;;;;;;;;;;;-10.67;54.89;99615.66;4881620;29;19938;-68
2022/03/09 00:48:34;;;;;;;;;;;;;;;-10.75;55.45;99612.75;4916703;29;20022;-70
2022/03/09 00:50:59;;;;;;;;;;;;;;;-10.71;55.50;99610.81;4898974;29;19974;-68
2022/03/09 00:53:25;;;;;;;;;;;;;;;-10.71;55.62;99615.94;4915106;29;19950;-70
2022/03/09 00:55:51;;;;;;;;;;;;;;;-10.80;55.05;99613.03;4915374;29;19987;-68
2022/03/09 00:58:16;;;;;;;;;;;;;;;-10.88;56.21;99622.13;4915945;29;20022;-68
2022/03/09 01:00:42;;;;;;;;;;;;;;;-10.86;55.74;99623.66;4916242;29;19935;-64
2022/03/09 01:03:07;;;;;;;;;;;;;;;-10.88;55.69;99619.56;4916364;29;19934;-63
2022/03/09 01:05:33;;;;;;;;;;;;;;;-10.93;56.09;99624.97;4909332;29;19986;-62
2022/03/09 01:07:59;;;;;;;;;;;;;;;-10.91;55.71;99623.16;4906160;29;19934;-64
2022/03/09 01:10:24;;;;;;;;;;;;;;;-10.91;55.31;99622.31;4915873;29;19931;-62
2022/03/09 01:12:50;;;;;;;;;;;;;;;-11.02;55.16;99628.94;4916127;29;19995;-62
2022/03/09 01:15:16;;;;;;;;;;;;;;;-11.04;55.76;99629.94;4898521;29;19931;-63
2022/03/09 01:17:42;;;;;;;;;;;;;;;-11.02;55.70;99628.94;4916235;29;20464;-64
2022/03/09 01:20:08;;;;;;;;;;;;;;;-11.06;55.69;99629.19;4915546;29;19931;-63
2022/03/09 01:22:34;;;;;;;;;;;;;;;-11.02;55.00;99638.34;4915090;29;19927;-64
2022/03/09 01:25:00;;;;;;;;;;;;;;;-11.04;54.82;99642.72;4915943;29;20410;-63
2022/03/09 01:27:26;;;;;;;;;;;;;;;-11.10;55.46;99633.69;4915617;29;20456;-64
2022/03/09 01:29:51;;;;;;;;;;;;;;;-11.10;55.72;99641.38;4915669;29;19998;-62
2022/03/09 01:32:19;;;;;;;;;;;;;;;-11.17;55.85;99629.88;4914222;29;20020;-68
2022/03/09 01:34:45;;;;;;;;;;;;;;;-11.16;55.84;99638.38;4914852;29;19938;-68
2022/03/09 01:37:11;;;;;;;;;;;;;;;-11.19;56.18;99636.00;4915301;29;19927;-68
2022/03/09 01:39:36;;;;;;;;;;;;;;;-11.25;55.99;99638.00;4915604;29;19927;-67
2022/03/09 01:42:02;;;;;;;;;;;;;;;-11.22;55.63;99634.44;4896363;29;19995;-68
2022/03/09 01:44:28;;;;;;;;;;;;;;;-11.28;55.33;99643.31;4913713;29;19949;-68
2022/03/09 01:46:54;;;;;;;;;;;;;;;-11.32;55.98;99638.44;4915241;29;19927;-70
2022/03/09 01:49:19;;;;;;;;;;;;;;;-11.49;56.43;99642.03;4915623;29;20324;-69
2022/03/09 01:51:46;;;;;;;;;;;;;;;-11.41;56.48;99652.66;4915583;29;20023;-70
2022/03/09 01:54:14;;;;;;;;;;;;;;;-11.41;55.78;99641.56;4914064;29;20033;-65
2022/03/09 01:56:39;;;;;;;;;;;;;;;-11.53;56.48;99645.69;4900094;29;19931;-64
2022/03/09 01:59:05;;;;;;;;;;;;;;;-11.51;55.83;99647.22;4915284;29;19934;-65
2022/03/09 02:01:31;;;;;;;;;;;;;;;-11.55;56.81;99658.56;4915588;29;20396;-65
2022/03/09 02:03:57;;;;;;;;;;;;;;;-11.61;57.17;99658.13;4915041;29;19926;-64
2022/03/09 02:06:23;;;;;;;;;;;;;;;-11.58;56.89;99660.50;4915566;29;20364;-65
2022/03/09 02:11:33;;;;;;;;;;;;;;;-11.64;56.41;99671.09;4913597;29;19999;-64
2022/03/09 02:13:59;;;;;;;;;;;;;;;-11.69;55.96;99668.78;4915120;29;19927;-65
2022/03/09 02:16:24;;;;;;;;;;;;;;;-11.66;55.78;99673.72;4900948;29;19979;-66
2022/03/09 02:18:50;;;;;;;;;;;;;;;-11.64;56.13;99676.19;4896845;29;19928;-65
2022/03/09 02:21:16;;;;;;;;;;;;;;;-11.70;57.01;99674.81;4896452;29;19977;-65
2022/03/09 02:23:41;;;;;;;;;;;;;;;-11.75;56.14;99669.97;4912588;29;20672;-68
2022/03/09 02:26:07;;;;;;;;;;;;;;;-11.77;56.35;99676.88;4903296;29;19932;-68
2022/03/09 02:28:36;;;;;;;;;;;;;;;-11.81;56.49;99678.00;4896673;29;19943;-67
2022/03/09 02:31:02;;;;;;;;;;;;;;;-11.77;56.97;99681.19;4896341;29;20305;-68
2022/03/09 02:33:27;;;;;;;;;;;;;;;-11.85;56.63;99686.78;4902044;29;19927;-69
2022/03/09 02:35:53;;;;;;;;;;;;;;;-11.86;57.02;99689.41;4918653;29;19938;-69
2022/03/09 02:38:19;;;;;;;;;;;;;;;-11.93;56.37;99692.31;4918782;29;20413;-69
2022/03/09 02:40:44;;;;;;;;;;;;;;;-12.00;56.41;99683.38;4918400;29;20720;-68
2022/03/09 02:43:10;;;;;;;;;;;;;;;-11.99;57.42;99686.75;4918550;29;19927;-68
2022/03/09 02:45:36;;;;;;;;;;;;;;;-11.98;56.99;99685.81;4910339;29;20275;-68
2022/03/09 02:48:02;;;;;;;;;;;;;;;-11.98;57.74;99698.59;4899771;29;19935;-70
2022/03/09 02:50:27;;;;;;;;;;;;;;;-12.04;56.56;99694.66;4898430;29;19932;-69
2022/03/09 02:52:53;;;;;;;;;;;;;;;-12.08;57.41;99705.16;4902703;29;19933;-69
2022/03/09 02:55:18;;;;;;;;;;;;;;;-12.08;57.66;99695.75;4916815;29;20309;-69
2022/03/09 02:57:44;;;;;;;;;;;;;;;-12.08;57.80;99698.31;4918153;29;19927;-68
2022/03/09 03:00:11;;;;;;;;;;;;;;;-12.08;57.72;99700.03;4897878;29;20422;-69
2022/03/09 03:02:36;;;;;;;;;;;;;;;-12.10;57.64;99701.84;4909637;29;19930;-69
2022/03/09 03:05:03;;;;;;;;;;;;;;;-12.17;57.41;99701.38;4918144;29;20429;-69
2022/03/09 03:07:29;;;;;;;;;;;;;;;-12.24;57.91;99700.06;4901352;29;19966;-71
2022/03/09 03:09:55;;;;;;;;;;;;;;;-12.24;56.95;99705.16;4918195;29;19931;-71
2022/03/09 03:12:21;;;;;;;;;;;;;;;-12.23;57.91;99702.53;4916766;29;19934;-71
2022/03/09 03:14:46;;;;;;;;;;;;;;;-12.25;58.02;99704.34;4916120;29;19931;-69
2022/03/09 03:17:12;;;;;;;;;;;;;;;-12.24;57.49;99705.16;4882192;29;19939;-70
2022/03/09 03:19:38;;;;;;;;;;;;;;;-12.29;56.49;99714.81;4899187;29;19931;-69
2022/03/09 03:22:04;;;;;;;;;;;;;;;-12.31;58.09;99714.91;4906779;29;19975;-69
2022/03/09 03:24:30;;;;;;;;;;;;;;;-12.34;58.36;99716.81;4917391;29;19937;-64
2022/03/09 03:26:56;;;;;;;;;;;;;;;-12.38;57.75;99714.44;4909961;29;19934;-65
2022/03/09 03:29:21;;;;;;;;;;;;;;;-12.44;57.93;99719.03;4915846;29;19926;-65
2022/03/09 03:31:47;;;;;;;;;;;;;;;-12.51;58.61;99716.00;4917885;29;19931;-69
2022/03/09 03:34:13;;;;;;;;;;;;;;;-12.51;58.81;99727.94;4916553;29;20387;-67
2022/03/09 03:36:38;;;;;;;;;;;;;;;-12.55;58.96;99726.47;4915954;29;19930;-65
2022/03/09 03:39:04;;;;;;;;;;;;;;;-12.62;57.85;99721.66;4917394;29;19927;-66
2022/03/09 03:41:29;;;;;;;;;;;;;;;-12.55;57.55;99726.47;4912470;29;19931;-66
2022/03/09 03:43:55;;;;;;;;;;;;;;;-12.56;58.17;99733.28;4900311;29;19934;-65
2022/03/09 03:46:20;;;;;;;;;;;;;;;-12.63;57.77;99732.81;4916570;29;19931;-64
2022/03/09 03:48:46;;;;;;;;;;;;;;;-12.60;58.08;99740.28;4916402;29;20345;-66
2022/03/09 03:51:12;;;;;;;;;;;;;;;-12.60;57.46;99736.94;4915304;29;19938;-64
2022/03/09 03:53:37;;;;;;;;;;;;;;;-12.64;58.18;99741.38;4916359;29;19927;-64
2022/03/09 03:56:03;;;;;;;;;;;;;;;-12.64;59.08;99746.47;4917333;29;19953;-63
2022/03/09 03:58:29;;;;;;;;;;;;;;;-12.72;59.16;99747.78;4900340;29;19983;-63
2022/03/09 04:00:54;;;;;;;;;;;;;;;-12.76;59.33;99749.69;4907741;29;19931;-63
2022/03/09 04:03:20;;;;;;;;;;;;;;;-12.76;57.12;99753.94;4898543;29;19966;-65
2022/03/09 04:05:45;;;;;;;;;;;;;;;-12.73;57.79;99746.97;4898321;29;19931;-63
2022/03/09 04:08:11;;;;;;;;;;;;;;;-12.72;58.44;99750.34;4897088;29;20359;-67
2022/03/09 04:10:36;;;;;;;;;;;;;;;-12.67;57.09;99759.41;4887234;29;19979;-65
2022/03/09 04:13:04;;;;;;;;;;;;;;;-12.71;56.92;99760.47;4901467;29;19987;-65
2022/03/09 04:15:32;;;;;;;;;;;;;;;-12.67;57.88;99764.53;4897965;29;19935;-65
2022/03/09 04:17:58;;;;;;;;;;;;;;;-12.74;58.13;99763.19;4897001;29;19927;-66
2022/03/09 04:20:24;;;;;;;;;;;;;;;-12.73;56.44;99762.28;4893804;29;20074;-64
2022/03/09 04:22:50;;;;;;;;;;;;;;;-12.70;57.16;99766.41;4916753;29;20404;-66
2022/03/09 04:25:15;;;;;;;;;;;;;;;-12.61;58.02;99766.75;4915003;29;19953;-66
2022/03/09 04:27:41;;;;;;;;;;;;;;;-12.52;57.01;99769.72;4913730;29;19928;-66
2022/03/09 04:30:07;;;;;;;;;;;;;;;-12.46;57.89;99771.94;4905261;29;19931;-66
2022/03/09 04:32:34;;;;;;;;;;;;;;;-12.47;57.72;99773.69;4916181;29;19981;-67
2022/03/09 04:35:00;;;;;;;;;;;;;;;-12.30;57.19;99772.75;4897532;29;20386;-65
2022/03/09 04:37:26;;;;;;;;;;;;;;;-12.30;56.54;99777.88;4906862;29;19949;-66
2022/03/09 04:39:53;;;;;;;;;;;;;;;-12.32;56.58;99771.19;4914115;29;19938;-67
2022/03/09 04:42:19;;;;;;;;;;;;;;;-12.27;56.11;99782.00;4900993;29;19927;-64
2022/03/09 04:44:44;;;;;;;;;;;;;;;-12.30;56.67;99780.41;4916492;29;19947;-64
2022/03/09 04:47:10;;;;;;;;;;;;;;;-12.37;55.98;99785.03;4912737;29;20400;-66
2022/03/09 04:49:35;;;;;;;;;;;;;;;-12.29;55.99;99784.66;4916517;29;19954;-65
2022/03/09 04:52:01;;;;;;;;;;;;;;;-12.31;57.19;99791.56;4909499;29;19931;-67
2022/03/09 04:54:27;;;;;;;;;;;;;;;-12.23;57.18;99788.59;4914862;29;19927;-65
2022/03/09 04:56:52;;;;;;;;;;;;;;;-12.15;56.19;99794.91;4914707;29;20310;-65
2022/03/09 04:59:18;;;;;;;;;;;;;;;-12.04;55.73;99799.44;4916081;29;20357;-65
2022/03/09 05:01:43;;;;;;;;;;;;;;;-12.02;55.98;99805.31;4916302;29;19931;-68
2022/03/09 05:04:09;;;;;;;;;;;;;;;-11.99;55.48;99809.44;4914571;29;19931;-69
2022/03/09 05:06:35;;;;;;;;;;;;;;;-12.01;55.79;99804.41;4900445;29;19931;-67
2022/03/09 05:09:01;;;;;;;;;;;;;;;-12.04;55.65;99811.41;4906612;29;20014;-69
2022/03/09 05:11:26;;;;;;;;;;;;;;;-11.88;54.18;99814.78;4913900;29;20041;-66
2022/03/09 05:13:52;;;;;;;;;;;;;;;-11.82;53.90;99814.41;4915239;29;20393;-67
2022/03/09 05:16:18;;;;;;;;;;;;;;;-11.70;53.55;99812.91;4915448;29;20309;-65
2022/03/09 05:18:43;;;;;;;;;;;;;;;-11.67;53.26;99818.69;4914896;29;20424;-68
2022/03/09 05:21:09;;;;;;;;;;;;;;;-11.81;53.09;99823.72;4904342;29;19982;-65
2022/03/09 05:23:34;;;;;;;;;;;;;;;-11.71;53.09;99824.84;4896690;29;19959;-66
2022/03/09 05:26:00;;;;;;;;;;;;;;;-11.57;52.51;99821.53;4895481;29;19932;-69
2022/03/09 05:28:25;;;;;;;;;;;;;;;-11.44;53.05;99832.75;4897292;29;19927;-69
2022/03/09 05:31:01;;;;;;;;;;;;;;;-11.41;52.17;99830.91;4908012;29;20280;-65
2022/03/09 05:33:32;;;;;;;;;;;;;;;-11.33;52.26;99821.06;4895175;29;19927;-65
2022/03/09 05:36:04;;;;;;;;;;;;;;;-11.28;52.75;99834.41;4847298;29;19931;-70
2022/03/09 05:38:29;;;;;;;;;;;;;;;-11.39;52.04;99829.91;4905936;29;19927;-65
2022/03/09 05:40:55;;;;;;;;;;;;;;;-11.09;52.37;99839.28;4892063;29;19932;-62
2022/03/09 05:43:20;;;;;;;;;;;;;;;-11.10;51.18;99843.59;4878017;29;19966;-64
2022/03/09 05:45:46;;;;;;;;;;;;;;;-10.94;51.75;99842.69;4892030;29;20378;-64
2022/03/09 05:48:12;;;;;;;;;;;;;;;-10.91;51.37;99845.94;4897194;29;19934;-64
2022/03/09 05:50:37;;;;;;;;;;;;;;;-10.76;50.39;99850.16;4886165;29;19931;-64
2022/03/09 05:53:03;;;;;;;;;;;;;;;-10.79;51.14;99847.75;4910487;29;19931;-64
2022/03/09 05:55:29;;;;;;;;;;;;;;;-10.81;49.84;99848.75;4906071;29;19931;-64
2022/03/09 05:57:54;;;;;;;;;;;;;;;-10.76;51.00;99855.25;4891274;29;19984;-66
2022/03/09 06:00:20;;;;;;;;;;;;;;;-10.59;50.40;99863.69;4901228;29;19971;-65
2022/03/09 06:02:46;;;;;;;;;;;;;;;-10.54;49.75;99856.53;4875683;29;19927;-66
2022/03/09 06:05:12;;;;;;;;;;;;;;;-10.44;50.00;99867.06;4893126;29;19936;-64
2022/03/09 06:07:39;;;;;;;;;;;;;;;-10.46;49.69;99862.03;4894734;29;19931;-64
2022/03/09 06:10:05;;;;;;;;;;;;;;;-10.43;49.38;99869.53;4916093;29;19935;-66
2022/03/09 06:12:30;;;;;;;;;;;;;;;-10.49;49.75;99869.91;4913991;29;19928;-66
2022/03/09 06:14:58;;;;;;;;;;;;;;;-10.55;49.75;99872.84;4901408;29;19963;-64
2022/03/09 06:17:24;;;;;;;;;;;;;;;-10.67;49.79;99876.13;4914543;29;20235;-65
2022/03/09 06:19:49;;;;;;;;;;;;;;;-10.55;50.25;99872.84;4915182;29;19931;-64
2022/03/09 06:22:15;;;;;;;;;;;;;;;-10.28;50.39;99879.78;4913646;29;20065;-64
2022/03/09 06:24:40;;;;;;;;;;;;;;;-10.07;48.91;99876.72;4896980;29;19934;-62
2022/03/09 06:27:06;;;;;;;;;;;;;;;-10.07;48.43;99873.31;4897549;29;19935;-66
2022/03/09 06:29:31;;;;;;;;;;;;;;;-10.03;48.84;99876.50;4897213;29;19928;-65
2022/03/09 06:31:57;;;;;;;;;;;;;;;-10.05;49.24;99879.19;4896964;29;19926;-63
2022/03/09 06:34:23;;;;;;;;;;;;;;;-9.93;48.98;99875.88;4896765;29;19931;-65
2022/03/09 06:36:48;;;;;;;;;;;;;;;-9.88;48.58;99888.38;4911811;29;19938;-65
2022/03/09 06:39:16;;;;;;;;;;;;;;;-9.84;48.53;99884.72;4898242;29;20259;-66
2022/03/09 06:41:43;;;;;;;;;;;;;;;-9.77;48.45;99882.59;4899063;29;19938;-64
2022/03/09 06:44:10;;;;;;;;;;;;;;;-9.81;48.34;99891.41;4883027;29;20018;-62
2022/03/09 06:46:36;;;;;;;;;;;;;;;-9.65;48.02;99886.97;4870230;29;20347;-62
2022/03/09 06:49:02;;;;;;;;;;;;;;;-9.66;48.76;99885.31;4908199;29;19927;-62
2022/03/09 06:51:30;;;;;;;;;;;;;;;-9.51;47.78;99897.19;4911336;29;21223;-64
2022/03/09 06:53:56;;;;;;;;;;;;;;;-9.35;47.37;99881.66;4914440;29;19927;-64
2022/03/09 06:56:22;;;;;;;;;;;;;;;-9.23;46.61;99883.41;4909601;29;19970;-62
2022/03/09 06:58:47;;;;;;;;;;;;;;;-9.16;46.88;99891.53;4912678;29;19971;-62
2022/03/09 07:01:13;;;;;;;;;;;;;;;-9.05;47.93;99904.53;4914537;29;19935;-63
2022/03/09 07:03:38;;;;;;;;;;;;;;;-8.96;46.13;99900.53;4913065;29;19927;-62
2022/03/09 07:06:04;;;;;;;;;;;;;;;-8.88;46.26;99888.00;4915344;29;19931;-64
2022/03/09 07:08:31;;;;;;;;;;;;;;;-8.91;45.83;99888.22;4893375;29;19932;-63
2022/03/09 07:10:56;;;;;;;;;;;;;;;-8.82;45.56;99894.47;4905134;29;19986;-63
2022/03/09 07:13:22;;;;;;;;;;;;;;;-9.08;47.18;99889.31;4916071;29;19931;-64
2022/03/09 07:15:48;;;;;;;;;;;;;;;-8.96;45.41;99892.81;4911828;29;19975;-62
2022/03/09 07:18:15;;;;;;;;;;;;;;;-8.89;45.39;99891.47;4891953;29;20016;-60
2022/03/09 07:20:41;;;;;;;;;;;;;;;-8.86;45.23;99896.41;4875280;29;20880;-62
2022/03/09 07:23:06;;;;;;;;;;;;;;;-8.65;46.71;99890.78;4906312;29;20025;-62
2022/03/09 07:25:32;;;;;;;;;;;;;;;-8.60;45.62;99889.56;4903387;29;19931;-63
2022/03/09 07:27:58;;;;;;;;;;;;;;;-8.62;45.80;99898.28;4880598;29;20358;-62
2022/03/09 07:30:24;;;;;;;;;;;;;;;-8.63;46.02;99891.50;4912870;29;19932;-62
2022/03/09 07:32:49;;;;;;;;;;;;;;;-8.50;46.10;99903.44;4915293;29;19927;-62
2022/03/09 07:35:15;;;;;;;;;;;;;;;-8.48;45.97;99904.16;4898512;29;19983;-62
2022/03/09 07:37:41;;;;;;;;;;;;;;;-8.44;45.54;99904.78;4914997;29;19927;-61
2022/03/09 07:40:07;;;;;;;;;;;;;;;-8.26;45.39;99903.50;4896748;29;19986;-63
2022/03/09 07:42:32;;;;;;;;;;;;;;;-8.16;44.25;99895.97;4896953;29;19932;-63
2022/03/09 07:44:58;;;;;;;;;;;;;;;-8.03;44.19;99901.09;4914102;29;20030;-62
2022/03/09 07:47:24;;;;;;;;;;;;;;;-7.92;43.71;99908.88;4898284;29;19982;-61
2022/03/09 07:49:49;;;;;;;;;;;;;;;-7.85;42.92;99899.00;4906681;29;19931;-63
2022/03/09 07:52:15;;;;;;;;;;;;;;;-7.78;43.87;99895.88;4897935;29;19934;-66
2022/03/09 07:54:41;;;;;;;;;;;;;;;-7.69;43.87;99901.31;4914161;29;19938;-62
2022/03/09 07:57:06;;;;;;;;;;;;;;;-7.68;43.63;99902.97;4914963;29;19926;-65
2022/03/09 07:59:32;;;;;;;;;;;;;;;-7.70;42.39;99902.25;4913945;29;20093;-61
2022/03/09 08:01:58;;;;;;;;;;;;;;;-7.61;42.58;99902.44;4915880;29;20083;-62
2022/03/09 08:04:24;;;;;;;;;;;;;;;-7.47;42.33;99911.75;4913545;29;19927;-62
2022/03/09 08:06:52;;;;;;;;;;;;;;;-7.42;41.67;99914.81;4909073;29;20308;-61
2022/03/09 08:09:18;;;;;;;;;;;;;;;-7.39;42.41;99909.44;4915975;29;20025;-60
2022/03/09 08:11:44;;;;;;;;;;;;;;;-7.22;41.48;99905.66;4913775;29;20037;-63
2022/03/09 08:14:10;;;;;;;;;;;;;;;-7.18;41.46;99903.66;4912730;29;20010;-65
2022/03/09 08:16:35;;;;;;;;;;;;;;;-7.05;41.24;99919.91;4898007;29;20385;-61
2022/03/09 08:19:01;;;;;;;;;;;;;;;-7.04;40.42;99916.38;4896741;29;20359;-62
2022/03/09 08:21:26;;;;;;;;;;;;;;;-6.98;40.30;99918.50;4896550;29;19938;-62
2022/03/09 08:23:52;;;;;;;;;;;;;;;-7.07;40.42;99908.06;4911334;29;20063;-63
2022/03/09 08:26:18;;;;;;;;;;;;;;;-7.01;40.43;99923.88;4915245;29;19931;-61
2022/03/09 08:28:44;;;;;;;;;;;;;;;-6.95;40.25;99918.28;4915310;29;19974;-62
2022/03/09 08:31:09;;;;;;;;;;;;;;;-6.82;39.90;99919.94;4913760;29;19931;-60
2022/03/09 08:33:35;;;;;;;;;;;;;;;-6.79;39.31;99923.16;4912485;29;19935;-61
2022/03/09 08:36:01;;;;;;;;;;;;;;;-6.79;39.11;99914.56;4912715;29;20018;-61
2022/03/09 08:38:26;;;;;;;;;;;;;;;-6.78;38.41;99918.81;4912223;29;20025;-63
2022/03/09 08:40:53;;;;;;;;;;;;;;;-6.85;38.78;99915.88;4904428;29;20137;-62
2022/03/09 08:43:19;;;;;;;;;;;;;;;-6.73;38.97;99932.19;4893400;29;20340;-64
2022/03/09 08:45:45;;;;;;;;;;;;;;;-6.73;38.02;99917.53;4895659;29;19931;-62
2022/03/09 08:48:10;;;;;;;;;;;;;;;-6.74;38.27;99930.53;4899048;29;19987;-62
2022/03/09 08:50:36;;;;;;;;;;;;;;;-6.78;38.67;99918.81;4912151;29;19931;-63
2022/03/09 08:53:01;;;;;;;;;;;;;;;-6.81;38.27;99922.44;4911827;29;19934;-61
2022/03/09 08:55:27;;;;;;;;;;;;;;;-6.89;37.99;99935.88;4912303;29;19939;-62
2022/03/09 08:57:54;;;;;;;;;;;;;;;-6.79;38.95;99912.00;4913083;29;19998;-60
2022/03/09 09:00:19;;;;;;;;;;;;;;;-6.77;38.40;99926.41;4915022;29;20404;-61
2022/03/09 09:02:45;;;;;;;;;;;;;;;-6.78;37.89;99929.13;4914720;29;19934;-62
2022/03/09 09:05:10;;;;;;;;;;;;;;;-6.80;37.56;99944.69;4914446;29;19986;-61
2022/03/09 09:07:36;;;;;;;;;;;;;;;-6.79;39.01;99943.78;4914295;29;19991;-63
2022/03/09 09:10:02;;;;;;;;;;;;;;;-6.75;38.14;99931.47;4913756;29;20385;-61
2022/03/09 09:12:30;;;;;;;;;;;;;;;-6.77;38.28;99933.31;4912859;29;20324;-62
2022/03/09 09:14:56;;;;;;;;;;;;;;;-6.77;37.69;99936.72;4910951;29;20358;-60
2022/03/09 09:17:21;;;;;;;;;;;;;;;-6.71;37.52;99951.75;4911839;29;19978;-62
2022/03/09 09:19:47;;;;;;;;;;;;;;;-6.69;37.59;99934.41;4912783;29;19998;-62
2022/03/09 09:22:13;;;;;;;;;;;;;;;-6.76;38.28;99937.56;4911513;29;20357;-62
2022/03/09 09:24:38;;;;;;;;;;;;;;;-6.77;38.13;99944.47;4913625;29;19977;-63
2022/03/09 09:27:04;;;;;;;;;;;;;;;-6.80;38.27;99965.31;4893186;29;19927;-61
2022/03/09 09:29:30;;;;;;;;;;;;;;;-6.79;38.17;99951.50;4893517;29;20431;-60
2022/03/09 09:31:55;;;;;;;;;;;;;;;-6.87;37.82;99949.47;4895707;29;19950;-62
2022/03/09 09:34:21;;;;;;;;;;;;;;;-6.84;37.29;99945.84;4900006;29;19927;-64
2022/03/09 09:36:47;;;;;;;;;;;;;;;-6.74;37.40;99949.38;4900644;29;19931;-61
2022/03/09 09:39:13;;;;;;;;;;;;;;;-6.66;37.25;99949.66;4902092;29;20367;-64
2022/03/09 09:41:41;;;;;;;;;;;;;;;-6.64;37.28;99946.97;4904216;29;19974;-61
2022/03/09 09:44:06;;;;;;;;;;;;;;;-6.52;37.98;99958.94;4905273;29;20099;-61
2022/03/09 09:46:35;;;;;;;;;;;;;;;-6.44;37.26;99966.09;4887031;29;20425;-61
2022/03/09 09:49:00;;;;;;;;;;;;;;;-6.50;36.99;99954.50;4899418;29;19939;-62
2022/03/09 09:51:26;;;;;;;;;;;;;;;-6.47;37.56;99962.03;4903838;29;20386;-61
2022/03/09 09:53:52;;;;;;;;;;;;;;;-6.45;36.90;99969.63;4899232;29;19927;-63
2022/03/09 09:56:17;;;;;;;;;;;;;;;-6.41;36.45;99971.06;4904197;29;19931;-61
2022/03/09 09:58:43;;;;;;;;;;;;;;;-6.39;36.83;99979.50;4911416;29;19953;-63
2022/03/09 10:01:09;;;;;;;;;;;;;;;-6.30;36.42;99963.31;4896993;29;20026;-62
2022/03/09 10:03:35;;;;;;;;;;;;;;;-6.29;36.58;99971.91;4893872;29;20075;-63
2022/03/09 10:06:00;;;;;;;;;;;;;;;-6.34;37.47;99976.59;4895906;29;20405;-63
2022/03/09 10:08:26;;;;;;;;;;;;;;;-6.39;36.36;99989.81;4911846;29;20404;-63
2022/03/09 10:10:59;;;;;;;;;;;;;;;-6.37;36.55;99979.38;4910158;29;19938;-63
2022/03/09 10:13:26;;;;;;;;;;;;;;;-6.34;36.37;99989.47;4912599;29;19927;-62
2022/03/09 10:16:10;;;;;;;;;;;;;;;-6.23;35.57;99976.59;4895983;29;19938;-62
2022/03/09 10:18:36;;;;;;;;;;;;;;;-6.32;35.29;99998.75;4912770;29;19949;-63
2022/03/09 10:21:12;;;;;;;;;;;;;;;-6.21;35.83;99969.53;4907976;29;20404;-61
2022/03/09 10:23:56;;;;;;;;;;;;;;;-6.15;35.17;99976.00;4895091;29;20025;-62
2022/03/09 10:26:38;;;;;;;;;;;;;;;-6.13;35.45;99993.03;4871837;29;19932;-62
2022/03/09 10:29:05;;;;;;;;;;;;;;;-6.16;35.68;99990.69;4901618;29;20499;-62
2022/03/09 10:31:35;;;;;;;;;;;;;;;-6.19;35.67;99988.31;4889299;29;19936;-62
2022/03/09 10:34:07;;;;;;;;;;;;;;;-6.19;35.05;99978.81;4876148;29;20383;-62
2022/03/09 10:37:02;;;;;;;;;;;;;;;-6.18;35.36;99989.97;4874313;29;20026;-62
2022/03/09 10:39:28;;;;;;;;;;;;;;;-6.22;34.81;99999.69;4909887;29;19966;-62
2022/03/09 10:41:54;;;;;;;;;;;;;;;-6.28;35.58;99997.56;4892532;29;20311;-63
2022/03/09 10:44:20;;;;;;;;;;;;;;;-6.18;34.87;99982.22;4890274;29;20026;-62
2022/03/09 10:46:46;;;;;;;;;;;;;;;-6.14;35.06;100003.47;4894481;29;20468;-62
2022/03/09 10:49:13;;;;;;;;;;;;;;;-6.12;35.04;99994.66;4904700;29;19927;-61
2022/03/09 10:51:43;;;;;;;;;;;;;;;-6.06;35.74;99999.38;4894202;29;19931;-61
2022/03/09 10:54:08;;;;;;;;;;;;;;;-5.94;34.40;99992.47;4902290;29;19934;-60
2022/03/09 10:56:34;;;;;;;;;;;;;;;-5.98;34.44;99998.78;4912928;29;19931;-61
2022/03/09 10:59:09;;;;;;;;;;;;;;;-5.93;35.50;100000.06;4908692;29;20412;-62
2022/03/09 11:01:35;;;;;;;;;;;;;;;-5.96;34.78;100007.25;4914464;29;19974;-61
2022/03/09 11:04:27;;;;;;;;;;;;;;;-6.00;34.88;99998.91;4898801;29;19969;-63
2022/03/09 11:06:55;;;;;;;;;;;;;;;-6.12;34.97;99999.81;4914394;29;19935;-61
2022/03/09 11:09:20;;;;;;;;;;;;;;;-6.01;35.15;99989.50;4907554;29;19965;-62
2022/03/09 11:11:46;;;;;;;;;;;;;;;-5.96;35.00;99984.81;4912358;29;19931;-62
2022/03/09 11:14:13;;;;;;;;;;;;;;;-6.03;35.33;99977.66;4888580;29;19928;-60
2022/03/09 11:16:39;;;;;;;;;;;;;;;-6.06;34.84;99999.38;4901088;29;19938;-62
2022/03/09 11:19:04;;;;;;;;;;;;;;;-6.03;34.65;99999.16;4903863;29;19931;-61
2022/03/09 11:21:32;;;;;;;;;;;;;;;-5.99;35.36;100002.31;4891882;29;19942;-60
2022/03/09 11:23:58;;;;;;;;;;;;;;;-6.02;35.00;100016.28;4915203;29;19927;-63
2022/03/09 11:26:24;;;;;;;;;;;;;;;-5.96;34.59;100007.25;4914346;29;20029;-63
2022/03/09 11:28:58;;;;;;;;;;;;;;;-6.15;34.92;100004.41;4895987;29;19991;-60
2022/03/09 11:31:24;;;;;;;;;;;;;;;-6.01;35.61;99997.25;4895523;29;20371;-61
2022/03/09 11:33:51;;;;;;;;;;;;;;;-6.03;35.10;99999.16;4891466;29;20342;-61
2022/03/09 11:36:20;;;;;;;;;;;;;;;-6.00;34.08;100000.66;4876597;29;20023;-60
2022/03/09 11:38:48;;;;;;;;;;;;;;;-5.96;34.41;100002.91;4913163;29;19955;-61
2022/03/09 11:41:19;;;;;;;;;;;;;;;-5.99;33.99;100003.13;4911671;29;19935;-60
2022/03/09 11:43:45;;;;;;;;;;;;;;;-5.97;34.61;100003.84;4913679;29;20340;-59
2022/03/09 11:46:11;;;;;;;;;;;;;;;-5.99;33.94;100023.78;4904399;29;19947;-61
2022/03/09 11:48:56;;;;;;;;;;;;;;;-6.11;34.33;100013.56;4895542;29;19991;-59
2022/03/09 11:51:22;;;;;;;;;;;;;;;-6.03;33.64;100017.22;4912305;29;19931;-60
2022/03/09 11:53:49;;;;;;;;;;;;;;;-6.11;34.26;100008.41;4896631;29;20364;-59
2022/03/09 11:56:30;;;;;;;;;;;;;;;-5.99;35.08;100018.63;4913127;29;19931;-61
2022/03/09 11:59:12;;;;;;;;;;;;;;;-6.02;34.50;100023.19;4913832;29;19927;-60
2022/03/09 12:02:09;;;;;;;;;;;;;;;-6.01;34.34;100019.66;4906005;29;20041;-60
2022/03/09 12:04:40;;;;;;;;;;;;;;;-5.96;33.99;100031.28;4915354;29;19927;-59
2022/03/09 12:07:06;;;;;;;;;;;;;;;-6.04;33.93;100025.88;4906137;29;19935;-61
2022/03/09 12:09:50;;;;;;;;;;;;;;;-6.04;34.82;100025.88;4893534;29;19950;-60
2022/03/09 12:12:15;;;;;;;;;;;;;;;-6.07;34.78;100027.88;4893351;29;20021;-60
2022/03/09 12:15:01;;;;;;;;;;;;;;;-6.03;35.32;100043.03;4893900;29;20022;-59
2022/03/09 12:17:31;;;;;;;;;;;;;;;-6.07;34.75;100027.88;4911992;29;19977;-59
2022/03/09 12:20:15;;;;;;;;;;;;;;;-6.09;35.37;100032.31;4894939;29;19982;-60
2022/03/09 12:22:56;;;;;;;;;;;;;;;-6.04;34.80;100036.19;4893365;29;20239;-61
2022/03/09 12:25:34;;;;;;;;;;;;;;;-6.03;35.17;100037.88;4902400;29;20420;-60
2022/03/09 12:28:20;;;;;;;;;;;;;;;-6.03;35.05;100035.28;4911761;29;19950;-60
2022/03/09 12:30:47;;;;;;;;;;;;;;;-6.00;35.34;100041.94;4903087;29;20019;-61
2022/03/09 12:33:23;;;;;;;;;;;;;;;-5.92;34.83;100044.75;4897489;29;20028;-61
2022/03/09 12:35:48;;;;;;;;;;;;;;;-5.97;34.93;100050.31;4907728;29;19931;-60
2022/03/09 12:38:14;;;;;;;;;;;;;;;-6.00;34.57;100063.44;4895732;29;19927;-62
2022/03/09 12:40:40;;;;;;;;;;;;;;;-6.00;34.69;100057.44;4898987;29;19978;-63
2022/03/09 12:43:06;;;;;;;;;;;;;;;-5.97;34.81;100065.81;4910799;29;20506;-61